ANE8034 LEPP-LEZL

Flight info

Callsign ANE8034
Flight time 1h 19m
Altitude 33000
Route NOLSA N857 HIJ
Aircraft CRJX/M-SDFGIRWY/S

Departure

Time 2026-04-18 06:47
Airport Pamplona Airport (LEPP)

Arrival

Time 2026-04-18 08:06
Airport Seville Airport (LEZL)
Time Latitude Longitude Altitude Speed Heading
2026-04-18 06:14 42.76812 -1.64133 1477 ft 0 kts 127°
2026-04-18 06:42 42.76810 -1.64129 1490 ft 0 kts 134°
2026-04-18 06:42 42.76806 -1.64127 1477 ft 1 kts 163°
2026-04-18 06:42 42.76759 -1.64127 1487 ft 9 kts 184°
2026-04-18 06:42 42.76685 -1.64107 1482 ft 11 kts 164°
2026-04-18 06:43 42.76608 -1.64100 1482 ft 14 kts 166°
2026-04-18 06:43 42.76537 -1.64124 1480 ft 9 kts 224°
2026-04-18 06:43 42.76513 -1.64171 1480 ft 4 kts 238°
2026-04-18 06:43 42.76479 -1.64215 1489 ft 10 kts 195°
2026-04-18 06:44 42.76389 -1.64182 1484 ft 18 kts 153°
2026-04-18 06:44 42.76259 -1.64106 1499 ft 18 kts 185°
2026-04-18 06:44 42.76207 -1.64096 1501 ft 6 kts 117°
2026-04-18 06:44 42.76212 -1.64069 1502 ft 3 kts 40°
2026-04-18 06:45 42.76234 -1.64073 1500 ft 0 kts 332°
2026-04-18 06:46 42.76243 -1.64079 1500 ft 8 kts 335°
2026-04-18 06:46 42.76484 -1.64252 1488 ft 75 kts 332°
2026-04-18 06:46 42.77145 -1.64733 1482 ft 137 kts 332°
2026-04-18 06:46 42.78114 -1.65435 1665 ft 168 kts 332°
2026-04-18 06:47 42.79160 -1.66158 2416 ft 165 kts 333°
2026-04-18 06:47 42.80207 -1.66926 3077 ft 180 kts 332°
2026-04-18 06:47 42.81337 -1.67799 3602 ft 196 kts 332°
2026-04-18 06:47 42.82613 -1.68731 4024 ft 218 kts 333°
2026-04-18 06:48 42.84010 -1.69721 4605 ft 234 kts 332°
2026-04-18 06:48 42.85489 -1.70782 5308 ft 243 kts 331°
2026-04-18 06:48 42.86992 -1.71879 6136 ft 247 kts 330°
2026-04-18 06:48 42.88261 -1.73411 6896 ft 246 kts 295°
2026-04-18 06:49 42.88577 -1.75640 7669 ft 241 kts 258°
2026-04-18 06:49 42.87834 -1.77607 8411 ft 240 kts 221°
2026-04-18 06:49 42.86375 -1.78722 9170 ft 243 kts 205°
2026-04-18 06:49 42.84988 -1.80039 9863 ft 247 kts 230°
2026-04-18 06:50 42.84126 -1.82055 10563 ft 248 kts 247°
2026-04-18 06:50 42.83534 -1.84278 11203 ft 251 kts 251°
2026-04-18 06:50 42.82974 -1.86546 11872 ft 254 kts 251°
2026-04-18 06:50 42.82380 -1.88829 12536 ft 257 kts 250°
2026-04-18 06:51 42.81523 -1.90969 13150 ft 262 kts 225°
2026-04-18 06:51 42.79919 -1.92117 13820 ft 268 kts 189°
2026-04-18 06:51 42.78061 -1.91819 14390 ft 276 kts 156°
2026-04-18 06:51 42.76456 -1.90363 14994 ft 279 kts 148°
2026-04-18 06:52 42.74605 -1.89409 15100 ft 297 kts 177°
2026-04-18 06:52 42.72479 -1.89533 15265 ft 315 kts 187°
2026-04-18 06:52 42.70224 -1.89847 15414 ft 336 kts 186°
2026-04-18 06:52 42.67881 -1.90006 15807 ft 346 kts 182°
2026-04-18 06:53 42.65445 -1.90024 16317 ft 352 kts 182°
2026-04-18 06:53 42.62981 -1.90042 16914 ft 355 kts 182°
2026-04-18 06:53 42.60506 -1.90116 17510 ft 357 kts 184°
2026-04-18 06:53 42.58010 -1.90209 18099 ft 359 kts 183°
2026-04-18 06:54 42.55502 -1.90288 18641 ft 362 kts 183°
2026-04-18 06:54 42.52969 -1.90368 19133 ft 364 kts 183°
2026-04-18 06:54 42.50436 -1.90454 19605 ft 366 kts 183°
2026-04-18 06:54 42.47883 -1.90538 20078 ft 368 kts 183°
2026-04-18 06:55 42.45311 -1.90623 20545 ft 370 kts 184°
2026-04-18 06:55 42.42745 -1.90933 20958 ft 370 kts 197°
2026-04-18 06:55 42.40373 -1.92113 21429 ft 368 kts 206°
2026-04-18 06:55 42.38071 -1.93653 21848 ft 370 kts 209°
2026-04-18 06:56 42.35789 -1.95292 22278 ft 371 kts 210°
2026-04-18 06:56 42.33492 -1.96926 22706 ft 373 kts 209°
2026-04-18 06:56 42.31171 -1.98525 23110 ft 376 kts 208°
2026-04-18 06:56 42.28845 -2.00073 23504 ft 377 kts 208°
2026-04-18 06:57 42.28522 -2.00288 23558 ft 378 kts 208°
2026-04-18 06:58 42.26765 -2.01466 23836 ft 379 kts 208°
2026-04-18 06:58 42.24387 -2.03022 24157 ft 381 kts 208°
2026-04-18 06:58 42.22002 -2.04594 24472 ft 382 kts 208°
2026-04-18 06:59 42.19611 -2.06180 24769 ft 384 kts 208°
2026-04-18 06:59 42.17201 -2.07766 25052 ft 386 kts 208°
2026-04-18 06:59 42.14811 -2.09335 25322 ft 387 kts 208°
2026-04-18 06:59 42.12389 -2.10943 25616 ft 389 kts 208°
2026-04-18 07:00 42.09941 -2.12561 25905 ft 390 kts 208°
2026-04-18 07:00 42.07499 -2.14174 26180 ft 392 kts 208°
2026-04-18 07:00 42.05042 -2.15793 26450 ft 393 kts 208°
2026-04-18 07:00 42.02576 -2.17417 26701 ft 395 kts 208°
2026-04-18 07:01 42.00132 -2.19017 26963 ft 396 kts 208°
2026-04-18 07:01 41.99618 -2.19355 27020 ft 396 kts 208°
2026-04-18 07:02 41.97767 -2.20571 27198 ft 398 kts 208°
2026-04-18 07:02 41.95272 -2.22214 27419 ft 400 kts 208°
2026-04-18 07:03 41.92771 -2.23856 27659 ft 401 kts 208°
2026-04-18 07:03 41.90263 -2.25494 27885 ft 402 kts 208°
2026-04-18 07:03 41.87745 -2.27143 28132 ft 403 kts 208°
2026-04-18 07:03 41.85213 -2.28799 28367 ft 405 kts 208°
2026-04-18 07:04 41.82705 -2.30434 28623 ft 405 kts 208°
2026-04-18 07:04 41.80168 -2.32094 28836 ft 406 kts 208°
2026-04-18 07:04 41.77615 -2.33757 29037 ft 408 kts 208°
2026-04-18 07:04 41.75062 -2.35424 29240 ft 409 kts 208°
2026-04-18 07:05 41.72494 -2.37098 29439 ft 410 kts 208°
2026-04-18 07:05 41.69923 -2.38767 29615 ft 411 kts 208°
2026-04-18 07:05 41.67345 -2.40444 29832 ft 413 kts 208°
2026-04-18 07:05 41.64755 -2.42127 30002 ft 414 kts 208°
2026-04-18 07:06 41.62161 -2.43806 30184 ft 415 kts 208°
2026-04-18 07:06 41.59563 -2.45493 30340 ft 416 kts 208°
2026-04-18 07:06 41.56956 -2.47178 30481 ft 417 kts 208°
2026-04-18 07:06 41.54344 -2.48869 30623 ft 418 kts 208°
2026-04-18 07:07 41.49061 -2.52288 30662 ft 425 kts 207°
2026-04-18 07:07 41.46446 -2.53971 30998 ft 420 kts 207°
2026-04-18 07:07 41.43811 -2.55668 31132 ft 421 kts 207°
2026-04-18 07:08 41.41171 -2.57369 31258 ft 422 kts 207°
2026-04-18 07:08 41.38519 -2.59075 31367 ft 423 kts 207°
2026-04-18 07:08 41.35863 -2.60785 31494 ft 424 kts 207°
2026-04-18 07:08 41.33206 -2.62505 31611 ft 424 kts 209°
2026-04-18 07:09 41.28185 -2.66623 31806 ft 424 kts 217°
2026-04-18 07:09 41.25800 -2.68933 31907 ft 425 kts 217°
2026-04-18 07:09 41.23409 -2.71250 32059 ft 425 kts 217°
2026-04-18 07:10 41.21014 -2.73491 32191 ft 425 kts 216°
2026-04-18 07:10 41.18586 -2.75716 32340 ft 424 kts 216°
2026-04-18 07:10 41.16162 -2.77944 32491 ft 424 kts 216°
2026-04-18 07:10 41.13729 -2.80173 32503 ft 426 kts 216°
2026-04-18 07:11 41.08833 -2.84658 32662 ft 428 kts 216°
2026-04-18 07:11 41.03914 -2.89158 32785 ft 431 kts 216°
2026-04-18 07:12 40.98989 -2.93653 32958 ft 431 kts 216°
2026-04-18 07:12 40.96508 -2.95909 33076 ft 431 kts 216°
2026-04-18 07:12 40.94037 -2.98161 33139 ft 432 kts 216°
2026-04-18 07:13 40.89064 -3.02681 33177 ft 436 kts 216°
2026-04-18 07:13 40.84047 -3.07237 33176 ft 440 kts 216°
2026-04-18 07:14 40.79839 -3.11046 33177 ft 442 kts 216°
2026-04-18 07:14 40.73907 -3.16414 33175 ft 445 kts 216°
2026-04-18 07:15 40.69619 -3.20283 33180 ft 447 kts 216°
2026-04-18 07:15 40.68782 -3.21039 33174 ft 447 kts 216°
2026-04-18 07:16 40.67250 -3.22418 33173 ft 447 kts 216°
2026-04-18 07:17 40.62105 -3.27051 33178 ft 449 kts 216°
2026-04-18 07:17 40.56940 -3.31690 33183 ft 450 kts 216°
2026-04-18 07:18 40.51762 -3.36331 33185 ft 450 kts 216°
2026-04-18 07:18 40.46577 -3.40968 33184 ft 451 kts 216°
2026-04-18 07:19 40.41408 -3.45589 33173 ft 452 kts 216°
2026-04-18 07:19 40.36202 -3.50232 33180 ft 452 kts 215°
2026-04-18 07:20 40.30985 -3.54876 33184 ft 453 kts 215°
2026-04-18 07:20 40.25758 -3.59516 33185 ft 454 kts 215°
2026-04-18 07:21 40.20530 -3.64151 33185 ft 454 kts 215°
2026-04-18 07:21 40.15292 -3.68786 33175 ft 455 kts 215°
2026-04-18 07:22 40.10056 -3.73432 33170 ft 455 kts 215°
2026-04-18 07:22 40.04787 -3.78043 33150 ft 456 kts 215°
2026-04-18 07:23 39.99558 -3.82651 33159 ft 456 kts 215°
2026-04-18 07:23 39.99362 -3.82824 33157 ft 456 kts 215°
2026-04-18 07:24 39.97208 -3.84719 33152 ft 456 kts 215°
2026-04-18 07:25 39.91928 -3.89354 33145 ft 457 kts 215°
2026-04-18 07:25 39.86677 -3.93951 33146 ft 457 kts 215°
2026-04-18 07:26 39.81358 -3.98604 33148 ft 458 kts 215°
2026-04-18 07:26 39.79342 -4.00360 33149 ft 458 kts 215°
2026-04-18 07:27 39.78915 -4.00732 33146 ft 458 kts 215°
2026-04-18 07:28 39.73659 -4.05324 33150 ft 458 kts 215°
2026-04-18 07:28 39.68345 -4.09929 33146 ft 458 kts 215°
2026-04-18 07:29 39.63041 -4.14544 33145 ft 459 kts 214°
2026-04-18 07:29 39.57757 -4.19127 33144 ft 459 kts 215°
2026-04-18 07:30 39.52441 -4.23724 33142 ft 459 kts 215°
2026-04-18 07:30 39.47087 -4.28352 32638 ft 463 kts 214°
2026-04-18 07:31 39.44426 -4.30640 32233 ft 455 kts 214°
2026-04-18 07:31 39.41813 -4.32892 31830 ft 447 kts 214°
2026-04-18 07:31 39.39245 -4.35105 31443 ft 440 kts 214°
2026-04-18 07:31 39.36708 -4.37285 31069 ft 434 kts 214°
2026-04-18 07:32 39.34232 -4.39412 30697 ft 429 kts 215°
2026-04-18 07:32 39.31753 -4.41543 30339 ft 425 kts 215°
2026-04-18 07:32 39.29294 -4.43650 29944 ft 422 kts 214°
2026-04-18 07:32 39.26854 -4.45740 29532 ft 419 kts 214°
2026-04-18 07:33 39.24434 -4.47820 29127 ft 416 kts 215°
2026-04-18 07:33 39.22061 -4.49852 28743 ft 413 kts 214°
2026-04-18 07:33 39.19663 -4.51899 28350 ft 411 kts 214°
2026-04-18 07:33 39.17283 -4.53930 27992 ft 408 kts 214°
2026-04-18 07:34 39.14921 -4.55947 27622 ft 406 kts 214°
2026-04-18 07:34 39.12568 -4.57954 27259 ft 405 kts 214°
2026-04-18 07:34 39.10210 -4.59964 26924 ft 406 kts 214°
2026-04-18 07:34 39.07846 -4.61974 26578 ft 407 kts 214°
2026-04-18 07:35 39.05476 -4.63990 26240 ft 410 kts 214°
2026-04-18 07:35 39.03127 -4.65989 25906 ft 412 kts 214°
2026-04-18 07:35 39.00729 -4.68033 25560 ft 414 kts 215°
2026-04-18 07:35 38.99771 -4.68851 25423 ft 415 kts 214°
2026-04-18 07:37 38.98442 -4.69973 25235 ft 416 kts 214°
2026-04-18 07:37 38.96010 -4.72019 24898 ft 418 kts 214°
2026-04-18 07:37 38.93579 -4.74086 24563 ft 420 kts 214°
2026-04-18 07:37 38.91155 -4.76133 24236 ft 422 kts 214°
2026-04-18 07:38 38.88697 -4.78216 23910 ft 425 kts 214°
2026-04-18 07:38 38.86231 -4.80298 23555 ft 420 kts 214°
2026-04-18 07:38 38.83806 -4.82349 23163 ft 413 kts 214°
2026-04-18 07:38 38.81419 -4.84359 22780 ft 408 kts 214°
2026-04-18 07:39 38.79065 -4.86345 22400 ft 403 kts 214°
2026-04-18 07:39 38.76732 -4.88307 22037 ft 398 kts 214°
2026-04-18 07:39 38.74430 -4.90246 21684 ft 394 kts 214°
2026-04-18 07:39 38.72141 -4.92171 21333 ft 390 kts 214°
2026-04-18 07:40 38.69906 -4.94044 21000 ft 387 kts 214°
2026-04-18 07:40 38.67660 -4.95932 20672 ft 384 kts 214°
2026-04-18 07:40 38.65433 -4.97803 20349 ft 382 kts 214°
2026-04-18 07:40 38.63210 -4.99659 20025 ft 380 kts 214°
2026-04-18 07:41 38.62569 -5.00197 19934 ft 379 kts 214°
2026-04-18 07:42 38.61965 -5.00704 19849 ft 379 kts 214°
2026-04-18 07:43 38.59811 -5.02511 19538 ft 377 kts 214°
2026-04-18 07:43 38.57616 -5.04345 19229 ft 375 kts 214°
2026-04-18 07:43 38.55437 -5.06170 18927 ft 374 kts 214°
2026-04-18 07:44 38.53261 -5.07995 18620 ft 373 kts 214°
2026-04-18 07:44 38.51074 -5.09778 18297 ft 372 kts 210°
2026-04-18 07:44 38.48692 -5.11058 17953 ft 372 kts 199°
2026-04-18 07:44 38.46205 -5.11984 17623 ft 371 kts 196°
2026-04-18 07:45 38.43717 -5.12835 17297 ft 371 kts 196°
2026-04-18 07:45 38.41226 -5.13702 16974 ft 370 kts 197°
2026-04-18 07:45 38.38791 -5.14624 16651 ft 369 kts 198°
2026-04-18 07:45 38.36335 -5.15597 16337 ft 369 kts 198°
2026-04-18 07:46 38.33884 -5.16552 16021 ft 368 kts 198°
2026-04-18 07:46 38.31433 -5.17512 15701 ft 368 kts 198°
2026-04-18 07:46 38.28991 -5.18466 15398 ft 367 kts 198°
2026-04-18 07:46 38.26547 -5.19421 15095 ft 366 kts 197°
2026-04-18 07:47 38.24107 -5.20370 14790 ft 366 kts 198°
2026-04-18 07:47 38.21682 -5.21320 14493 ft 365 kts 198°
2026-04-18 07:47 38.19250 -5.22265 14199 ft 364 kts 198°
2026-04-18 07:47 38.16831 -5.23214 13898 ft 364 kts 197°
2026-04-18 07:48 38.14433 -5.24143 13576 ft 363 kts 197°
2026-04-18 07:48 38.12018 -5.25081 13255 ft 362 kts 197°
2026-04-18 07:48 38.09610 -5.26013 12942 ft 360 kts 197°
2026-04-18 07:48 38.07218 -5.26942 12623 ft 359 kts 197°
2026-04-18 07:49 38.04830 -5.27871 12310 ft 357 kts 197°
2026-04-18 07:49 38.02453 -5.28792 12007 ft 356 kts 197°
2026-04-18 07:49 38.00092 -5.29707 11698 ft 354 kts 197°
2026-04-18 07:49 37.99500 -5.29940 11626 ft 354 kts 197°
2026-04-18 07:51 37.97915 -5.30561 11429 ft 353 kts 197°
2026-04-18 07:51 37.95577 -5.31477 11135 ft 350 kts 198°
2026-04-18 07:51 37.93274 -5.32385 10843 ft 342 kts 198°
2026-04-18 07:51 37.91052 -5.33256 10564 ft 328 kts 197°
2026-04-18 07:52 37.88898 -5.34107 10279 ft 317 kts 197°
2026-04-18 07:52 37.86865 -5.34913 9993 ft 301 kts 197°
2026-04-18 07:52 37.84915 -5.35671 9709 ft 286 kts 197°
2026-04-18 07:52 37.83024 -5.36398 9436 ft 280 kts 197°
2026-04-18 07:53 37.81180 -5.37105 9178 ft 274 kts 197°
2026-04-18 07:53 37.79363 -5.37814 8946 ft 272 kts 197°
2026-04-18 07:53 37.77553 -5.38514 8698 ft 271 kts 197°
2026-04-18 07:53 37.75859 -5.39546 8460 ft 274 kts 216°
2026-04-18 07:54 37.74400 -5.41084 8261 ft 276 kts 221°
2026-04-18 07:54 37.72995 -5.42737 8048 ft 277 kts 221°
2026-04-18 07:54 37.71592 -5.44417 7824 ft 278 kts 222°
2026-04-18 07:54 37.70203 -5.46069 7599 ft 270 kts 221°
2026-04-18 07:55 37.68848 -5.47624 7361 ft 263 kts 219°
2026-04-18 07:55 37.67501 -5.49140 7134 ft 256 kts 219°
2026-04-18 07:55 37.66176 -5.50617 6904 ft 251 kts 219°
2026-04-18 07:55 37.64891 -5.52074 6693 ft 246 kts 219°
2026-04-18 07:56 37.63629 -5.53495 6479 ft 241 kts 219°
2026-04-18 07:56 37.62390 -5.54893 6263 ft 236 kts 220°
2026-04-18 07:56 37.61183 -5.56268 6053 ft 232 kts 219°
2026-04-18 07:56 37.59997 -5.57615 5844 ft 227 kts 219°
2026-04-18 07:57 37.58839 -5.58928 5701 ft 216 kts 219°
2026-04-18 07:57 37.57760 -5.60150 5571 ft 203 kts 220°
2026-04-18 07:57 37.56718 -5.61309 5423 ft 197 kts 220°
2026-04-18 07:57 37.55721 -5.62424 5222 ft 192 kts 220°
2026-04-18 07:58 37.53846 -5.64556 4928 ft 170 kts 220°
2026-04-18 07:58 37.52970 -5.65557 4777 ft 169 kts 217°
2026-04-18 07:58 37.51858 -5.65892 4520 ft 171 kts 167°
2026-04-18 07:59 37.50970 -5.64932 4337 ft 177 kts 116°
2026-04-18 07:59 37.50783 -5.63397 4190 ft 177 kts 102°
2026-04-18 07:59 37.50152 -5.62154 4018 ft 171 kts 144°
2026-04-18 07:59 37.49171 -5.61314 3927 ft 171 kts 152°
2026-04-18 08:00 37.48104 -5.60646 3804 ft 172 kts 158°
2026-04-18 08:00 37.46956 -5.60205 3668 ft 174 kts 176°
2026-04-18 08:00 37.45763 -5.60496 3539 ft 175 kts 197°
2026-04-18 08:00 37.45076 -5.61031 3404 ft 179 kts 224°
2026-04-18 08:01 37.44295 -5.62251 3308 ft 179 kts 229°
2026-04-18 08:01 37.43507 -5.63473 3177 ft 181 kts 229°
2026-04-18 08:01 37.42458 -5.65114 2972 ft 183 kts 230°
2026-04-18 08:01 37.42073 -5.66626 2798 ft 184 kts 263°
2026-04-18 08:02 37.42004 -5.67699 2717 ft 181 kts 262°
2026-04-18 08:02 37.41913 -5.69263 2559 ft 177 kts 263°
2026-04-18 08:02 37.41863 -5.70778 2368 ft 170 kts 265°
2026-04-18 08:02 37.41831 -5.72200 2197 ft 159 kts 268°
2026-04-18 08:03 37.41819 -5.73565 1989 ft 153 kts 270°
2026-04-18 08:03 37.41833 -5.74900 1802 ft 152 kts 271°
2026-04-18 08:03 37.41851 -5.76172 1808 ft 138 kts 271°
2026-04-18 08:03 37.41844 -5.77379 1689 ft 146 kts 269°
2026-04-18 08:04 37.41831 -5.78706 1532 ft 153 kts 271°
2026-04-18 08:04 37.41838 -5.80032 1350 ft 155 kts 271°
2026-04-18 08:04 37.41832 -5.81389 1135 ft 154 kts 271°
2026-04-18 08:04 37.41823 -5.82720 920 ft 151 kts 271°
2026-04-18 08:05 37.41798 -5.84034 711 ft 149 kts 271°
2026-04-18 08:05 37.41788 -5.85329 505 ft 148 kts 272°
2026-04-18 08:05 37.41794 -5.86593 271 ft 143 kts 271°
2026-04-18 08:05 37.41797 -5.87870 119 ft 146 kts 272°
2026-04-18 08:06 37.41794 -5.89003 101 ft 107 kts 270°
2026-04-18 08:06 37.41792 -5.89762 96 ft 73 kts 270°
2026-04-18 08:06 37.41791 -5.90350 95 ft 62 kts 270°
2026-04-18 08:06 37.41790 -5.90848 93 ft 41 kts 270°
2026-04-18 08:07 37.41788 -5.91109 91 ft 23 kts 269°
2026-04-18 08:07 37.41829 -5.91185 90 ft 7 kts
2026-04-18 08:07 37.41869 -5.91151 90 ft 8 kts 50°
2026-04-18 08:07 37.41903 -5.91087 90 ft 10 kts 58°
2026-04-18 08:08 37.41943 -5.91001 91 ft 12 kts 60°
2026-04-18 08:08 37.41976 -5.90915 90 ft 6 kts 85°
2026-04-18 08:08 37.41980 -5.90846 89 ft 9 kts 87°
2026-04-18 08:08 37.41979 -5.90758 90 ft 11 kts 91°
2026-04-18 08:09 37.41978 -5.90647 93 ft 14 kts 89°
2026-04-18 08:09 37.41979 -5.90566 91 ft 6 kts 89°
2026-04-18 08:09 37.41979 -5.90492 92 ft 12 kts 89°
2026-04-18 08:09 37.41980 -5.90367 92 ft 17 kts 89°
2026-04-18 08:10 37.41980 -5.90197 93 ft 22 kts 90°
2026-04-18 08:10 37.41981 -5.90015 94 ft 19 kts 90°
2026-04-18 08:10 37.41981 -5.89852 94 ft 19 kts 90°
2026-04-18 08:10 37.41987 -5.89691 97 ft 18 kts 74°
2026-04-18 08:11 37.42057 -5.89564 97 ft 18 kts 45°
2026-04-18 08:11 37.42113 -5.89494 97 ft 10 kts 45°
2026-04-18 08:11 37.42153 -5.89443 96 ft 4 kts 45°
2026-04-18 08:11 37.42170 -5.89426 96 ft 2 kts 16°
2026-04-18 08:12 37.42200 -5.89444 96 ft 9 kts 319°
2026-04-18 08:12 37.42275 -5.89535 95 ft 19 kts 314°
2026-04-18 08:12 37.42325 -5.89600 94 ft 5 kts 315°
2026-04-18 08:12 37.42342 -5.89620 93 ft 4 kts 315°
2026-04-18 08:13 37.42357 -5.89627 94 ft 2 kts
2026-04-18 08:13 37.42375 -5.89615 95 ft 2 kts 44°
2026-04-18 08:13 37.42381 -5.89587 94 ft 2 kts 92°
2026-04-18 08:13 37.42381 -5.89585 94 ft 0 kts 94°